PWSweather.com
Personal Weather Stations
Station Observations
REUBENS
Camas Prairie, Reubens, ID 83548

Camas PrairieReubens, ID 83548

Lat: 46.35417, Lon: -116.53167

Elevation: 3480

Station Type: Davis VantagePro 2

http://www.theobrienranch.com/wx/wx.htm

High Low Average
Temperature 75.9°F24.4°C 45.6°F7.6°C 63.2°F17.3°C
Dew Point 44.2°F6.8°C 36.7°F2.6°C 41.2°F5.1°C
Winds 10.4 mph 16.7 kmh Calm Calm 3.0 mph SSE4.8 kmh SSE
Wind Gusts 12.7 mph20.4 kmh -- 5.0 mph8.0 kmh
Humidity 73% 26% 46%
Pressure 30.28 in1025.4 mb 30.17 in1021.7 mb -
Precipitation 0.00 in0.0 mm - -
Hour Temp Dew Point Humidity Winds Wind Gusts Pressure Precip Precip Rate Daily Precip Total
12:00 AM 48.1°F8.9°C 36.1°F2.3°C 63% Calm Calm -- 30.25 in1024.4 mb - 0.00 in0.0 mm 0.00 in0.0 mm
12:15 AM 47.5°F8.6°C 36.3°F2.4°C 65% Calm Calm -- 30.23 in1023.7 mb - 0.00 in0.0 mm 0.00 in0.0 mm
12:30 AM 47.8°F8.8°C 36.2°F2.3°C 64% Calm Calm -- 30.23 in1023.7 mb - 0.00 in0.0 mm 0.00 in0.0 mm
12:45 AM 46.7°F8.2°C 35.5°F1.9°C 65% Calm Calm -- 30.24 in1024.0 mb - 0.00 in0.0 mm 0.00 in0.0 mm
01:00 AM 47.5°F8.6°C 36.7°F2.6°C 66% Calm Calm -- 30.24 in1024.0 mb - 0.00 in0.0 mm 0.00 in0.0 mm
01:15 AM 55.3°F12.9°C 39.4°F4.1°C 55% 2.3 mph NNW3.7 kmh NNW 3.5 mph5.6 kmh 30.20 in1022.7 mb - 0.00 in0.0 mm 0.00 in0.0 mm
01:30 AM 52.4°F11.3°C 38.5°F3.6°C 59% 4.6 mph NNW7.4 kmh NNW 4.6 mph7.4 kmh 30.21 in1023.0 mb - 0.00 in0.0 mm 0.00 in0.0 mm
01:45 AM 54.4°F12.4°C 39.1°F3.9°C 56% 3.5 mph NNW5.6 kmh NNW 4.6 mph7.4 kmh 30.20 in1022.7 mb - 0.00 in0.0 mm 0.00 in0.0 mm
02:00 AM 54.5°F12.5°C 38.6°F3.7°C 55% 2.3 mph NW3.7 kmh NW 3.5 mph5.6 kmh 30.20 in1022.7 mb - 0.00 in0.0 mm 0.00 in0.0 mm
02:15 AM 55.0°F12.8°C 39.1°F3.9°C 55% 5.8 mph NW9.3 kmh NW 5.8 mph9.3 kmh 30.19 in1022.4 mb - 0.00 in0.0 mm 0.00 in0.0 mm
02:30 AM 56.0°F13.3°C 39.1°F3.9°C 53% 4.6 mph NW7.4 kmh NW 5.8 mph9.3 kmh 30.18 in1022.0 mb - 0.00 in0.0 mm 0.00 in0.0 mm
02:45 AM 56.0°F13.3°C 39.1°F3.9°C 53% 3.5 mph NW5.6 kmh NW 4.6 mph7.4 kmh 30.18 in1022.0 mb - 0.00 in0.0 mm 0.00 in0.0 mm
03:00 AM 56.6°F13.7°C 39.7°F4.3°C 53% 4.6 mph NW7.4 kmh NW 5.8 mph9.3 kmh 30.18 in1022.0 mb - 0.00 in0.0 mm 0.00 in0.0 mm
03:15 AM 54.4°F12.4°C 39.9°F4.4°C 58% 1.2 mph NW1.9 kmh NW 3.5 mph5.6 kmh 30.20 in1022.7 mb - 0.00 in0.0 mm 0.00 in0.0 mm
03:30 AM 56.1°F13.4°C 40.1°F4.5°C 55% Calm Calm -- 30.20 in1022.7 mb - 0.00 in0.0 mm 0.00 in0.0 mm
03:45 AM 54.0°F12.2°C 39.6°F4.2°C 58% Calm Calm -- 30.20 in1022.7 mb - 0.00 in0.0 mm 0.00 in0.0 mm
04:00 AM 54.0°F12.2°C 39.5°F4.2°C 58% Calm Calm -- 30.21 in1023.0 mb - 0.00 in0.0 mm 0.00 in0.0 mm
04:15 AM 52.6°F11.4°C 38.7°F3.7°C 59% Calm Calm -- 30.21 in1023.0 mb - 0.00 in0.0 mm 0.00 in0.0 mm
04:30 AM 51.2°F10.7°C 39.0°F3.9°C 63% Calm Calm -- 30.22 in1023.4 mb - 0.00 in0.0 mm 0.00 in0.0 mm
04:45 AM 52.1°F11.2°C 39.5°F4.2°C 62% Calm Calm -- 30.21 in1023.0 mb - 0.00 in0.0 mm 0.00 in0.0 mm
05:00 AM 51.6°F10.9°C 39.4°F4.1°C 63% Calm Calm -- 30.22 in1023.4 mb - 0.00 in0.0 mm 0.00 in0.0 mm
05:15 AM 50.2°F10.1°C 38.1°F3.4°C 63% Calm Calm 1.2 mph1.9 kmh 30.23 in1023.7 mb - 0.00 in0.0 mm 0.00 in0.0 mm
05:30 AM 47.4°F8.6°C 37.7°F3.2°C 69% Calm Calm 2.3 mph3.7 kmh 30.24 in1024.0 mb - 0.00 in0.0 mm 0.00 in0.0 mm
05:45 AM 47.1°F8.4°C 38.2°F3.4°C 71% Calm Calm -- 30.24 in1024.0 mb - 0.00 in0.0 mm 0.00 in0.0 mm
06:00 AM 45.6°F7.6°C 37.5°F3.1°C 73% Calm Calm -- 30.25 in1024.4 mb - 0.00 in0.0 mm 0.00 in0.0 mm
06:15 AM 46.1°F7.8°C 37.6°F3.1°C 72% Calm Calm -- 30.28 in1025.4 mb - 0.00 in0.0 mm 0.00 in0.0 mm
06:30 AM 46.5°F8.1°C 38.4°F3.6°C 73% Calm Calm -- 30.27 in1025.1 mb - 0.00 in0.0 mm 0.00 in0.0 mm
06:45 AM 47.3°F8.5°C 38.4°F3.6°C 71% Calm Calm -- 30.27 in1025.1 mb - 0.00 in0.0 mm 0.00 in0.0 mm
07:00 AM 48.9°F9.4°C 39.2°F4.0°C 69% Calm Calm -- 30.27 in1025.1 mb - 0.00 in0.0 mm 0.00 in0.0 mm
07:15 AM 52.4°F11.3°C 41.4°F5.2°C 66% Calm Calm -- 30.28 in1025.4 mb - 0.00 in0.0 mm 0.00 in0.0 mm
07:30 AM 56.9°F13.8°C 42.3°F5.7°C 58% Calm Calm -- 30.27 in1025.1 mb - 0.00 in0.0 mm 0.00 in0.0 mm
07:45 AM 58.3°F14.6°C 42.2°F5.7°C 55% Calm Calm 1.2 mph1.9 kmh 30.27 in1025.1 mb - 0.00 in0.0 mm 0.00 in0.0 mm
08:00 AM 59.9°F15.5°C 42.7°F5.9°C 53% 1.2 mph NW1.9 kmh NW 2.3 mph3.7 kmh 30.27 in1025.1 mb - 0.00 in0.0 mm 0.00 in0.0 mm
08:15 AM 61.6°F16.4°C 41.7°F5.4°C 48% 1.2 mph NW1.9 kmh NW 3.5 mph5.6 kmh 30.28 in1025.4 mb - 0.00 in0.0 mm 0.00 in0.0 mm
08:30 AM 62.8°F17.1°C 41.7°F5.4°C 46% Calm Calm -- 30.27 in1025.1 mb - 0.00 in0.0 mm 0.00 in0.0 mm
08:45 AM 64.8°F18.2°C 43.0°F6.1°C 45% Calm Calm 3.5 mph5.6 kmh 30.27 in1025.1 mb - 0.00 in0.0 mm 0.00 in0.0 mm
09:00 AM 67.7°F19.8°C 43.8°F6.6°C 42% Calm Calm 3.5 mph5.6 kmh 30.26 in1024.7 mb - 0.00 in0.0 mm 0.00 in0.0 mm
09:15 AM 66.8°F19.3°C 42.9°F6.1°C 42% 1.2 mph E1.9 kmh E 4.6 mph7.4 kmh 30.28 in1025.4 mb - 0.00 in0.0 mm 0.00 in0.0 mm
09:30 AM 67.3°F19.6°C 43.5°F6.4°C 42% 3.5 mph ENE5.6 kmh ENE 4.6 mph7.4 kmh 30.28 in1025.4 mb - 0.00 in0.0 mm 0.00 in0.0 mm
09:45 AM 68.6°F20.3°C 42.7°F5.9°C 39% 4.6 mph ENE7.4 kmh ENE 5.8 mph9.3 kmh 30.27 in1025.1 mb - 0.00 in0.0 mm 0.00 in0.0 mm
10:00 AM 67.0°F19.4°C 42.5°F5.8°C 41% 1.2 mph ENE1.9 kmh ENE 3.5 mph5.6 kmh 30.28 in1025.4 mb - 0.00 in0.0 mm 0.00 in0.0 mm
10:15 AM 68.2°F20.1°C 44.2°F6.8°C 42% 1.2 mph NE1.9 kmh NE 3.5 mph5.6 kmh 30.28 in1025.4 mb - 0.00 in0.0 mm 0.00 in0.0 mm
10:30 AM 67.8°F19.9°C 42.6°F5.9°C 40% 4.6 mph ENE7.4 kmh ENE 9.2 mph14.8 kmh 30.28 in1025.4 mb - 0.00 in0.0 mm 0.00 in0.0 mm
10:45 AM 68.1°F20.1°C 42.2°F5.7°C 39% 3.5 mph E5.6 kmh E 5.8 mph9.3 kmh 30.28 in1025.4 mb - 0.00 in0.0 mm 0.00 in0.0 mm
11:00 AM 69.9°F21.1°C 43.8°F6.6°C 39% Calm Calm 4.6 mph7.4 kmh 30.27 in1025.1 mb - 0.00 in0.0 mm 0.00 in0.0 mm
11:15 AM 69.6°F20.9°C 42.2°F5.7°C 37% 4.6 mph NE7.4 kmh NE 5.8 mph9.3 kmh 30.28 in1025.4 mb - 0.00 in0.0 mm 0.00 in0.0 mm
11:30 AM 69.9°F21.1°C 42.4°F5.8°C 37% 5.8 mph ENE9.3 kmh ENE 6.9 mph11.1 kmh 30.28 in1025.4 mb - 0.00 in0.0 mm 0.00 in0.0 mm
11:45 AM 72.1°F22.3°C 42.9°F6.1°C 35% 3.5 mph ENE5.6 kmh ENE 3.5 mph5.6 kmh 30.27 in1025.1 mb - 0.00 in0.0 mm 0.00 in0.0 mm
12:00 PM 70.8°F21.6°C 43.2°F6.2°C 37% 1.2 mph NE1.9 kmh NE 4.6 mph7.4 kmh 30.27 in1025.1 mb - 0.00 in0.0 mm 0.00 in0.0 mm
12:15 PM 70.6°F21.4°C 41.6°F5.3°C 35% 5.8 mph ENE9.3 kmh ENE 10.4 mph16.7 kmh 30.24 in1024.0 mb - 0.00 in0.0 mm 0.00 in0.0 mm
12:30 PM 72.4°F22.4°C 43.2°F6.2°C 35% 5.8 mph ENE9.3 kmh ENE 10.4 mph16.7 kmh 30.23 in1023.7 mb - 0.00 in0.0 mm 0.00 in0.0 mm
12:45 PM 72.1°F22.3°C 41.4°F5.2°C 33% 8.1 mph E13.0 kmh E 10.4 mph16.7 kmh 30.23 in1023.7 mb - 0.00 in0.0 mm 0.00 in0.0 mm
01:00 PM 71.4°F21.9°C 40.8°F4.9°C 33% 5.8 mph E9.3 kmh E 9.2 mph14.8 kmh 30.23 in1023.7 mb - 0.00 in0.0 mm 0.00 in0.0 mm
01:15 PM 72.3°F22.4°C 40.8°F4.9°C 32% 10.4 mph ENE16.7 kmh ENE 11.5 mph18.5 kmh 30.23 in1023.7 mb - 0.00 in0.0 mm 0.00 in0.0 mm
01:30 PM 72.6°F22.6°C 41.1°F5.1°C 32% 1.2 mph ENE1.9 kmh ENE 1.2 mph1.9 kmh 30.23 in1023.7 mb - 0.00 in0.0 mm 0.00 in0.0 mm
01:45 PM 72.3°F22.4°C 40.8°F4.9°C 32% 8.1 mph NE13.0 kmh NE 11.5 mph18.5 kmh 30.23 in1023.7 mb - 0.00 in0.0 mm 0.00 in0.0 mm
02:00 PM 72.9°F22.7°C 40.5°F4.7°C 31% 8.1 mph E13.0 kmh E 9.2 mph14.8 kmh 30.23 in1023.7 mb - 0.00 in0.0 mm 0.00 in0.0 mm
02:15 PM 73.3°F22.9°C 40.0°F4.4°C 30% 8.1 mph E13.0 kmh E 10.4 mph16.7 kmh 30.21 in1023.0 mb - 0.00 in0.0 mm 0.00 in0.0 mm
02:30 PM 72.4°F22.4°C 38.3°F3.5°C 29% 4.6 mph E7.4 kmh E 10.4 mph16.7 kmh 30.22 in1023.4 mb - 0.00 in0.0 mm 0.00 in0.0 mm
02:45 PM 72.9°F22.7°C 38.7°F3.7°C 29% 4.6 mph ENE7.4 kmh ENE 5.8 mph9.3 kmh 30.21 in1023.0 mb - 0.00 in0.0 mm 0.00 in0.0 mm
03:00 PM 75.3°F24.1°C 40.8°F4.9°C 29% 1.2 mph N1.9 kmh N 3.5 mph5.6 kmh 30.20 in1022.7 mb - 0.00 in0.0 mm 0.00 in0.0 mm
03:15 PM 74.4°F23.6°C 37.2°F2.9°C 26% 5.8 mph SE9.3 kmh SE 10.4 mph16.7 kmh 30.21 in1023.0 mb - 0.00 in0.0 mm 0.00 in0.0 mm
03:30 PM 74.0°F23.3°C 36.9°F2.7°C 26% Calm Calm -- 30.20 in1022.7 mb - 0.00 in0.0 mm 0.00 in0.0 mm
03:45 PM 75.0°F23.9°C 39.7°F4.3°C 28% 9.2 mph ENE14.8 kmh ENE 11.5 mph18.5 kmh 30.19 in1022.4 mb - 0.00 in0.0 mm 0.00 in0.0 mm
04:00 PM 75.0°F23.9°C 42.3°F5.7°C 31% 5.8 mph NE9.3 kmh NE 4.6 mph7.4 kmh 30.19 in1022.4 mb - 0.00 in0.0 mm 0.00 in0.0 mm
04:15 PM 74.6°F23.7°C 42.8°F6.0°C 32% 2.3 mph NNW3.7 kmh NNW 11.5 mph18.5 kmh 30.19 in1022.4 mb - 0.00 in0.0 mm 0.00 in0.0 mm
04:30 PM 75.9°F24.4°C 43.1°F6.2°C 31% 1.2 mph NNE1.9 kmh NNE 1.2 mph1.9 kmh 30.19 in1022.4 mb - 0.00 in0.0 mm 0.00 in0.0 mm
04:45 PM 74.9°F23.8°C 42.2°F5.7°C 31% 6.9 mph NE11.1 kmh NE 11.5 mph18.5 kmh 30.19 in1022.4 mb - 0.00 in0.0 mm 0.00 in0.0 mm
05:00 PM 75.0°F23.9°C 42.3°F5.7°C 31% 9.2 mph NE14.8 kmh NE 12.7 mph20.4 kmh 30.19 in1022.4 mb - 0.00 in0.0 mm 0.00 in0.0 mm
05:15 PM 72.5°F22.5°C 43.2°F6.2°C 35% 8.1 mph ENE13.0 kmh ENE 11.5 mph18.5 kmh 30.22 in1023.4 mb - 0.00 in0.0 mm 0.00 in0.0 mm
05:30 PM 71.1°F21.7°C 42.1°F5.6°C 35% 9.2 mph ENE14.8 kmh ENE 11.5 mph18.5 kmh 30.22 in1023.4 mb - 0.00 in0.0 mm 0.00 in0.0 mm
05:45 PM 70.5°F21.4°C 43.0°F6.1°C 37% 3.5 mph ENE5.6 kmh ENE 4.6 mph7.4 kmh 30.23 in1023.7 mb - 0.00 in0.0 mm 0.00 in0.0 mm
06:00 PM 69.6°F20.9°C 42.8°F6.0°C 38% 1.2 mph ENE1.9 kmh ENE 3.5 mph5.6 kmh 30.23 in1023.7 mb - 0.00 in0.0 mm 0.00 in0.0 mm
06:15 PM 68.3°F20.2°C 43.0°F6.1°C 40% 4.6 mph NE7.4 kmh NE 5.8 mph9.3 kmh 30.21 in1023.0 mb - 0.00 in0.0 mm 0.00 in0.0 mm
06:30 PM 68.2°F20.1°C 42.9°F6.1°C 40% 2.3 mph NE3.7 kmh NE 4.6 mph7.4 kmh 30.21 in1023.0 mb - 0.00 in0.0 mm 0.00 in0.0 mm
06:45 PM 67.4°F19.7°C 42.9°F6.1°C 41% 2.3 mph NE3.7 kmh NE 3.5 mph5.6 kmh 30.22 in1023.4 mb - 0.00 in0.0 mm 0.00 in0.0 mm
07:00 PM 66.6°F19.2°C 42.1°F5.6°C 41% 3.5 mph NE5.6 kmh NE 3.5 mph5.6 kmh 30.22 in1023.4 mb - 0.00 in0.0 mm 0.00 in0.0 mm
07:15 PM 66.6°F19.2°C 42.8°F6.0°C 42% 3.5 mph ENE5.6 kmh ENE 5.8 mph9.3 kmh 30.19 in1022.4 mb - 0.00 in0.0 mm 0.00 in0.0 mm
07:30 PM 66.1°F18.9°C 42.3°F5.7°C 42% 3.5 mph ENE5.6 kmh ENE 4.6 mph7.4 kmh 30.20 in1022.7 mb - 0.00 in0.0 mm 0.00 in0.0 mm
07:45 PM 65.0°F18.3°C 42.6°F5.9°C 44% 1.2 mph ENE1.9 kmh ENE 3.5 mph5.6 kmh 30.20 in1022.7 mb - 0.00 in0.0 mm 0.00 in0.0 mm
08:00 PM 65.0°F18.3°C 42.5°F5.8°C 44% 2.3 mph ENE3.7 kmh ENE 3.5 mph5.6 kmh 30.20 in1022.7 mb - 0.00 in0.0 mm 0.00 in0.0 mm
08:15 PM 65.0°F18.3°C 42.5°F5.8°C 44% 3.5 mph ENE5.6 kmh ENE 3.5 mph5.6 kmh 30.18 in1022.0 mb - 0.00 in0.0 mm 0.00 in0.0 mm
08:30 PM 64.8°F18.2°C 42.9°F6.1°C 45% 2.3 mph ENE3.7 kmh ENE 3.5 mph5.6 kmh 30.19 in1022.4 mb - 0.00 in0.0 mm 0.00 in0.0 mm
08:45 PM 64.5°F18.1°C 42.7°F5.9°C 45% Calm Calm 1.2 mph1.9 kmh 30.18 in1022.0 mb - 0.00 in0.0 mm 0.00 in0.0 mm
09:00 PM 64.2°F17.9°C 43.0°F6.1°C 46% 1.2 mph ENE1.9 kmh ENE 3.5 mph5.6 kmh 30.19 in1022.4 mb - 0.00 in0.0 mm 0.00 in0.0 mm
09:15 PM 64.5°F18.1°C 43.3°F6.3°C 46% 3.5 mph ENE5.6 kmh ENE 3.5 mph5.6 kmh 30.19 in1022.4 mb - 0.00 in0.0 mm 0.00 in0.0 mm
09:30 PM 64.2°F17.9°C 42.9°F6.1°C 46% 3.5 mph ENE5.6 kmh ENE 4.6 mph7.4 kmh 30.19 in1022.4 mb - 0.00 in0.0 mm 0.00 in0.0 mm
09:45 PM 62.8°F17.1°C 42.8°F6.0°C 48% 3.5 mph ENE5.6 kmh ENE 4.6 mph7.4 kmh 30.20 in1022.7 mb - 0.00 in0.0 mm 0.00 in0.0 mm
10:00 PM 61.8°F16.6°C 43.0°F6.1°C 50% 2.3 mph NE3.7 kmh NE 3.5 mph5.6 kmh 30.20 in1022.7 mb - 0.00 in0.0 mm 0.00 in0.0 mm
10:15 PM 62.6°F17.0°C 43.1°F6.2°C 49% 3.5 mph ENE5.6 kmh ENE 4.6 mph7.4 kmh 30.19 in1022.4 mb - 0.00 in0.0 mm 0.00 in0.0 mm
10:30 PM 60.8°F16.0°C 42.5°F5.8°C 51% 4.6 mph ENE7.4 kmh ENE 5.8 mph9.3 kmh 30.20 in1022.7 mb - 0.00 in0.0 mm 0.00 in0.0 mm
10:45 PM 61.0°F16.1°C 42.7°F5.9°C 51% 3.5 mph E5.6 kmh E 4.6 mph7.4 kmh 30.20 in1022.7 mb - 0.00 in0.0 mm 0.00 in0.0 mm
11:00 PM 59.9°F15.5°C 42.2°F5.7°C 52% 3.5 mph E5.6 kmh E 3.5 mph5.6 kmh 30.20 in1022.7 mb - 0.00 in0.0 mm 0.00 in0.0 mm
11:15 PM 59.8°F15.4°C 42.6°F5.9°C 53% 6.9 mph E11.1 kmh E 6.9 mph11.1 kmh 30.19 in1022.4 mb - 0.00 in0.0 mm 0.00 in0.0 mm
11:30 PM 60.6°F15.9°C 42.4°F5.8°C 51% 6.9 mph E11.1 kmh E 9.2 mph14.8 kmh 30.18 in1022.0 mb - 0.00 in0.0 mm 0.00 in0.0 mm
11:45 PM 59.1°F15.1°C 41.4°F5.2°C 52% 6.9 mph E11.1 kmh E 8.1 mph13.0 kmh 30.19 in1022.4 mb - 0.00 in0.0 mm 0.00 in0.0 mm